FW0887 Weather Reports


Display with metric or nautical units.
time (UTC)temp
F
wind
direction
speed
MPH
gust
MPH
rain 1hr
in
rain 24hr
in
rain mn
in
humidity
%
barometer
mb
20220120050203 34 265 2.0 7.0 0.00 0.04 0.04 91 1021.2
20220120044627 34 269 2.0 8.0 0.00 0.04 0.04 92 1021.2
20220120043905 34 293 2.0 3.0 0.00 0.04 0.04 91 1019.3
20220120043105 34 265 2.0 7.0 0.00 0.04 0.04 91 1021.2
20220120041629 34 273 2.0 5.0 0.01 0.04 0.04 91 1021.4
20220120040137 34 250 2.0 7.0 0.01 0.04 0.04 91 1021.6
20220120034550 34 242 0.0 7.0 0.01 0.04 0.04 91 1021.5
20220120033844 34 270 1.0 2.0 0.01 0.04 0.04 91 1019.7
20220120033046 34 270 1.0 6.0 0.01 0.04 0.04 91 1021.5
20220120031615 34 275 1.0 4.0 0.00 0.03 0.03 91 1021.4
20220120030115 33 215 1.0 5.0 0.01 0.03 0.03 91 1021.8
20220120024530 33 257 1.0 5.0 0.01 0.03 0.03 91 1021.6
20220120023921 34 248 1.0 4.0 0.01 0.03 0.03 91 1019.8
20220120023040 33 243 1.0 5.0 0.01 0.03 0.03 91 1021.7
20220120021544 33 246 2.0 8.0 0.02 0.03 0.03 91 1021.7
20220120020032 33 250 2.0 7.0 0.01 0.02 0.02 91 1021.9
20220120014529 33 272 3.0 9.0 0.02 0.02 0.02 90 1022.1
20220120013900 34 225 1.0 3.0 0.02 0.02 0.02 90 1020.3
20220120013051 33 236 1.0 7.0 0.02 0.02 0.02 90 1022.2
20220120011551 33 240 0.0 5.0 0.02 0.02 0.02 90 1022.0
20220120010044 33 263 1.0 6.0 0.02 0.02 0.02 90 1021.9
20220120004535 33 240 2.0 11.0 0.01 0.01 0.01 90 1021.8
20220120003838 34 248 2.0 5.0 0.01 0.01 0.01 89 1020.0
20220120003032 33 219 1.0 7.0 0.01 0.01 0.01 89 1021.8
20220120001531 33 249 0.0 8.0 0.00 0.00 0.00 88 1021.8
20220120000056 34 253 1.0 7.0 0.00 0.00 0.00 88 1021.9
20220119234523 34 257 5.0 15.0 0.00 0.00 0.00 87 1021.7
20220119233829 35 270 3.0 6.0 0.00 0.00 0.00 87 1020.0
20220119233015 34 269 1.0 10.0 0.00 0.00 0.00 87 1021.8
20220119231516 34 215 3.0 12.0 0.00 0.00 0.00 85 1021.7
20220119230007 35 268 5.0 14.0 0.00 0.00 0.00 84 1021.7
20220119224535 35 254 3.0 10.0 0.00 0.00 0.00 84 1021.8
20220119223929 35 270 3.0 7.0 0.00 0.00 0.00 84 1020.1
20220119223004 35 288 2.0 8.0 0.00 0.00 0.00 84 1021.9
20220119221505 35 235 4.0 10.0 0.00 0.00 0.00 83 1022.0
20220119220123 35 246 2.0 8.0 0.00 0.00 0.00 83 1022.1
20220119214618 35 281 5.0 9.0 0.00 0.00 0.00 84 1022.2
20220119213810 35 270 2.0 6.0 0.00 0.00 0.00 85 1020.6
20220119213230 35 281 3.0 9.0 0.00 0.00 0.00 85 1022.3
20220119210218 35 226 4.0 12.0 0.00 0.00 0.00 86 1022.3
20220119204635 35 295 4.0 10.0 0.00 0.00 0.00 85 1022.4
20220119203846 36 270 3.0 4.0 0.00 0.00 0.00 84 1020.4
20220119203125 35 280 4.0 12.0 0.00 0.00 0.00 84 1022.4
20220119201646 35 227 4.0 10.0 0.00 0.00 0.00 85 1022.1
20220119200112 35 270 5.0 13.0 0.00 0.00 0.00 85 1022.1
20220119194629 35 276 5.0 12.0 0.00 0.00 0.00 83 1022.1
20220119193808 36 225 7.0 13.0 0.00 0.00 0.00 83 1020.4
20220119193059 35 259 3.0 15.0 0.00 0.00 0.00 83 1022.4
20220119191600 35 275 4.0 11.0 0.00 0.00 0.00 83 1022.4
20220119190159 35 229 4.0 9.0 0.00 0.00 0.00 83 1022.5
20220119184705 35 235 2.0 12.0 0.00 0.00 0.00 82 1022.6
20220119183846 36 225 7.0 9.0 0.00 0.00 0.00 82 1020.5
20220119183226 35 272 6.0 11.0 0.00 0.00 0.00 82 1022.3
20220119181645 35 211 6.0 11.0 0.00 0.00 0.00 82 1022.5
20220119180049 35 263 4.0 14.0 0.00 0.00 0.00 84 1022.9
20220119174551 34 225 4.0 9.0 0.00 0.00 0.00 85 1023.1
20220119173821 34 203 4.0 7.0 0.00 0.00 0.00 85 1021.1
20220119173110 34 211 3.0 8.0 0.00 0.00 0.00 85 1022.9
20220119171548 33 200 4.0 8.0 0.00 0.00 0.00 85 1023.1
20220119170141 33 174 2.0 7.0 0.00 0.00 0.00 85 1023.2
20220119164632 33 188 3.0 6.0 0.00 0.01 0.00 85 1023.4
20220119163900 33 203 4.0 7.0 0.00 0.01 0.00 85 1021.7
20220119163106 33 196 3.0 7.0 0.00 0.01 0.00 85 1023.5
20220119161549 33 192 3.0 7.0 0.00 0.01 0.00 85 1023.7
20220119160102 33 211 3.0 8.0 0.00 0.01 0.00 85 1023.9
20220119154554 33 205 3.0 6.0 0.00 0.01 0.00 85 1024.0
20220119153736 33 203 4.0 5.0 0.00 0.01 0.00 85 1022.2
20220119153136 33 202 3.0 7.0 0.00 0.01 0.00 85 1024.2
20220119151549 33 204 3.0 8.0 0.00 0.01 0.00 85 1024.4
20220119150038 33 245 2.0 14.0 0.00 0.01 0.00 85 1024.9
20220119144533 33 246 3.0 11.0 0.00 0.01 0.00 85 1025.0
20220119143808 33 225 6.0 9.0 0.00 0.01 0.00 84 1022.9
20220119143048 33 220 5.0 9.0 0.00 0.01 0.00 84 1024.9
20220119141533 33 226 5.0 11.0 0.00 0.01 0.00 84 1024.9
20220119140051 33 232 5.0 10.0 0.00 0.01 0.00 84 1024.8
20220119134525 34 227 5.0 9.0 0.00 0.01 0.00 83 1025.0
20220119133744 34 203 4.0 6.0 0.00 0.01 0.00 83 1023.2
20220119133048 34 205 4.0 9.0 0.00 0.01 0.00 83 1025.0
20220119131519 34 187 4.0 7.0 0.00 0.01 0.00 83 1025.1
20220119130019 34 185 5.0 9.0 0.00 0.01 0.00 82 1025.3
20220119124518 35 185 4.0 9.0 0.00 0.01 0.00 81 1025.9
20220119123725 36 203 6.0 11.0 0.00 0.01 0.00 81 1024.4
20220119123012 35 187 5.0 11.0 0.00 0.01 0.00 80 1026.1
20220119121512 36 198 5.0 8.0 0.00 0.01 0.00 81 1026.3
20220119120011 36 213 5.0 11.0 0.00 0.01 0.00 82 1026.5
20220119114507 35 217 4.0 9.0 0.00 0.01 0.00 82 1026.8
20220119113724 36 203 5.0 7.0 0.00 0.01 0.00 83 1025.5
20220119113001 35 194 5.0 8.0 0.00 0.01 0.00 82 1027.3
20220119111626 35 215 4.0 8.0 0.00 0.01 0.00 83 1027.6
20220119110152 34 190 3.0 6.0 0.00 0.01 0.00 84 1027.9
20220119104721 35 219 4.0 9.0 0.00 0.01 0.00 83 1028.3
20220119103058 34 212 5.0 9.0 0.00 0.01 0.00 83 1028.6
20220119101612 34 188 2.0 5.0 0.00 0.01 0.00 82 1028.8
20220119100721 34 225 3.0 4.0 0.00 0.01 0.00 84 1027.0
20220119100209 33 217 2.0 4.0 0.00 0.01 0.00 84 1029.1
20220119094559 33 210 1.0 4.0 0.00 0.01 0.00 86 1029.2
20220119093207 33 163 1.0 3.0 0.00 0.01 0.00 87 1029.2
20220119091551 32 140 0.0 5.0 0.00 0.01 0.00 88 1029.5
20220119090657 32 158 1.0 2.0 0.00 0.01 0.00 88 1027.6
20220119090655 32 180 2.0 5.0 0.00 0.01 0.00 88 1027.8
20220119090136 32 158 1.0 5.0 0.00 0.01 0.00 88 1029.8
20220119084636 31 178 1.0 5.0 0.00 0.01 0.00 88 1030.2
20220119083058 31 216 2.0 8.0 0.00 0.01 0.00 88 1030.2
20220119081626 31 229 3.0 6.0 0.00 0.01 0.00 88 1030.5
20220119080632 32 158 1.0 3.0 0.00 0.01 0.00 88 1028.6
20220119080049 31 207 3.0 7.0 0.00 0.01 0.00 88 1030.5
20220119074630 31 184 1.0 5.0 0.00 0.01 0.00 88 1030.7
20220119073215 31 218 2.0 5.0 0.00 0.01 0.00 88 1030.9
20220119071545 31 217 2.0 6.0 0.00 0.01 0.00 89 1031.0
20220119070709 32 225 3.0 4.0 0.00 0.01 0.00 89 1028.9
20220119070037 31 226 3.0 6.0 0.00 0.01 0.00 89 1031.1
20220119064554 31 171 1.0 7.0 0.00 0.01 0.00 88 1031.1
20220119063044 31 229 2.0 5.0 0.00 0.01 0.00 88 1031.5
20220119061612 32 194 0.0 3.0 0.00 0.01 0.00 88 1031.5
20220119060644 32 225 1.0 2.0 0.00 0.01 0.00 88 1029.8
20220119060017 32 215 0.0 3.0 0.00 0.01 0.00 88 1031.7
20220119054521 32 170 0.0 3.0 0.00 0.01 0.00 88 1031.9
20220119053026 32 153 0.0 2.0 0.00 0.01 0.00 88 1032.1
20220119051513 32 153 0.0 1.0 0.00 0.01 0.00 87 1032.4
20220119050737 33 0.0 1.0 0.00 0.01 0.00 87 1030.5